createdAt,value
2018-06-23T00:02:15.075Z,20.10
2018-06-23T00:04:46.761Z,20.10
2018-06-23T00:07:17.857Z,20.10
2018-06-23T00:09:49.512Z,20.00
2018-06-23T00:12:21.676Z,20.00
2018-06-23T00:14:52.711Z,19.90
2018-06-23T00:17:23.717Z,19.80
2018-06-23T00:19:54.674Z,19.80
2018-06-23T00:22:25.837Z,19.70
2018-06-23T00:24:56.827Z,19.70
2018-06-23T00:27:28.725Z,19.70
2018-06-23T00:30:00.480Z,19.60
2018-06-23T00:32:31.729Z,19.60
2018-06-23T00:35:02.860Z,19.60
2018-06-23T00:37:33.790Z,19.60
2018-06-23T00:40:04.817Z,19.60
2018-06-23T00:47:37.152Z,19.70
2018-06-23T00:50:08.267Z,19.70
2018-06-23T00:52:40.020Z,19.70
2018-06-23T00:57:41.807Z,19.50
2018-06-23T01:00:13.059Z,19.40
2018-06-23T01:02:44.193Z,19.30
2018-06-23T01:05:16.068Z,19.20
2018-06-23T01:07:47.291Z,19.10
2018-06-23T01:10:18.326Z,19.10
2018-06-23T01:12:49.546Z,19.00
2018-06-23T01:15:21.322Z,18.90
2018-06-23T01:17:52.985Z,18.90
2018-06-23T01:20:24.017Z,18.80
2018-06-23T01:22:54.853Z,18.80
2018-06-23T01:25:25.747Z,18.90
2018-06-23T01:27:57.844Z,18.80
2018-06-23T01:30:28.770Z,18.90
2018-06-23T01:32:59.691Z,18.90
2018-06-23T01:35:30.645Z,18.90
2018-06-23T01:38:02.869Z,18.90
2018-06-23T01:40:33.875Z,18.90
2018-06-23T01:43:05.150Z,19.00
2018-06-23T01:45:36.180Z,19.00
2018-06-23T01:48:07.381Z,19.00
2018-06-23T01:50:40.051Z,18.90
2018-06-23T01:55:42.559Z,18.70
2018-06-23T01:58:13.452Z,18.60
2018-06-23T02:00:44.635Z,18.50
2018-06-23T02:03:15.691Z,18.40
2018-06-23T02:05:46.663Z,18.40
2018-06-23T02:08:18.619Z,18.30
2018-06-23T02:10:49.664Z,18.30
2018-06-23T02:13:20.730Z,18.20
2018-06-23T02:15:56.735Z,18.30
2018-06-23T02:18:32.480Z,18.20
2018-06-23T02:21:08.449Z,18.20
2018-06-23T02:23:44.571Z,18.10
2018-06-23T02:26:21.160Z,18.00
2018-06-23T02:28:57.368Z,18.00
2018-06-23T02:31:33.290Z,18.00
2018-06-23T02:34:09.125Z,17.90
2018-06-23T02:36:40.137Z,17.90
2018-06-23T02:41:42.667Z,17.80
2018-06-23T02:44:14.355Z,17.90
2018-06-23T02:49:17.299Z,17.80
2018-06-23T02:51:48.195Z,17.80
2018-06-23T02:54:19.091Z,17.80
2018-06-23T02:56:50.063Z,17.70
2018-06-23T02:59:21.313Z,17.70
2018-06-23T03:01:52.342Z,17.60
2018-06-23T03:04:23.299Z,17.60
2018-06-23T03:06:54.483Z,17.50
2018-06-23T03:09:26.252Z,17.50
2018-06-23T03:11:57.262Z,17.50
2018-06-23T03:14:29.081Z,17.40
2018-06-23T03:17:00.849Z,17.40
2018-06-23T03:19:31.737Z,17.40
2018-06-23T03:22:03.318Z,17.30
2018-06-23T03:24:34.404Z,17.30
2018-06-23T03:27:05.450Z,17.30
2018-06-23T03:29:36.464Z,17.20
2018-06-23T03:32:08.991Z,17.30
2018-06-23T03:34:40.427Z,17.30
2018-06-23T03:37:11.619Z,17.30
2018-06-23T03:39:42.795Z,17.30
2018-06-23T03:42:15.014Z,17.30
2018-06-23T03:44:46.884Z,17.30
2018-06-23T03:47:17.665Z,17.30
2018-06-23T03:49:49.531Z,17.30
2018-06-23T03:52:21.202Z,17.30
2018-06-23T03:54:52.163Z,17.30
2018-06-23T03:57:23.369Z,17.30
2018-06-23T03:59:54.417Z,17.30
2018-06-23T04:02:25.396Z,17.30
2018-06-23T04:04:56.600Z,17.40
2018-06-23T04:07:27.562Z,17.40
2018-06-23T04:09:59.564Z,17.40
2018-06-23T04:12:30.769Z,17.40
2018-06-23T04:15:02.223Z,17.40
2018-06-23T04:17:33.357Z,17.40
2018-06-23T04:20:04.513Z,17.30
2018-06-23T04:22:35.839Z,17.40
2018-06-23T04:25:07.647Z,17.40
2018-06-23T04:27:39.172Z,17.40
2018-06-23T04:30:10.274Z,17.50
2018-06-23T04:32:41.858Z,17.50
2018-06-23T04:35:12.814Z,17.60
2018-06-23T04:37:44.237Z,17.70
2018-06-23T04:40:15.538Z,17.70
2018-06-23T04:42:46.706Z,17.80
2018-06-23T04:45:17.986Z,17.90
2018-06-23T04:47:49.109Z,17.90
2018-06-23T04:50:21.023Z,18.00
2018-06-23T04:52:52.061Z,18.00
2018-06-23T04:55:23.396Z,18.10
2018-06-23T04:57:54.504Z,18.20
2018-06-23T05:00:27.302Z,18.30
2018-06-23T05:05:32.070Z,18.40
2018-06-23T05:08:03.315Z,18.50
2018-06-23T05:10:34.393Z,18.60
2018-06-23T05:13:05.682Z,18.80
2018-06-23T05:15:36.862Z,18.90
2018-06-23T05:18:08.202Z,18.90
2018-06-23T05:20:39.468Z,19.00
2018-06-23T05:23:11.479Z,19.10
2018-06-23T05:25:42.463Z,19.30
2018-06-23T05:28:13.525Z,19.40
2018-06-23T05:30:44.589Z,19.50
2018-06-23T05:35:48.621Z,19.60
2018-06-23T05:38:19.855Z,19.80
2018-06-23T05:40:51.170Z,19.80
2018-06-23T05:43:22.391Z,19.90
2018-06-23T05:45:53.715Z,20.10
2018-06-23T05:50:55.113Z,20.30
2018-06-23T05:53:26.617Z,20.40
2018-06-23T05:55:58.524Z,20.50
2018-06-23T05:58:30.023Z,20.60
2018-06-23T06:01:01.101Z,20.50
2018-06-23T06:03:33.499Z,20.70
2018-06-23T06:11:06.713Z,21.10
2018-06-23T06:13:38.072Z,21.20
2018-06-23T06:16:09.585Z,21.40
2018-06-23T06:18:40.848Z,21.40
2018-06-23T06:21:13.161Z,21.50
2018-06-23T06:23:45.938Z,21.70
2018-06-23T06:26:17.119Z,21.80
2018-06-23T06:28:48.279Z,22.00
2018-06-23T06:31:19.306Z,22.30
2018-06-23T06:33:51.556Z,22.60
2018-06-23T06:36:24.455Z,22.90
2018-06-23T06:38:55.593Z,23.40
2018-06-23T06:41:26.641Z,24.00
2018-06-23T06:43:57.894Z,24.30
2018-06-23T06:46:28.850Z,24.70
2018-06-23T06:49:00.087Z,25.00
2018-06-23T06:51:31.476Z,25.20
2018-06-23T06:54:03.555Z,25.50
2018-06-23T06:56:34.843Z,25.70
2018-06-23T06:59:06.372Z,25.90
2018-06-23T07:01:45.994Z,26.20
2018-06-23T07:04:18.063Z,26.40
2018-06-23T07:06:49.807Z,26.50
2018-06-23T07:09:21.102Z,26.60
2018-06-23T07:11:52.518Z,26.90
2018-06-23T07:14:23.577Z,26.80
2018-06-23T07:16:55.933Z,26.90
2018-06-23T07:19:27.633Z,26.70
2018-06-23T07:21:58.908Z,26.70
2018-06-23T07:24:30.538Z,26.20
2018-06-23T07:27:02.156Z,26.00
2018-06-23T07:29:34.011Z,26.10
2018-06-23T07:32:06.247Z,26.30
2018-06-23T07:34:38.878Z,26.30
2018-06-23T07:37:10.578Z,26.10
2018-06-23T07:39:41.759Z,26.30
2018-06-23T07:42:13.143Z,26.70
2018-06-23T07:44:44.662Z,26.20
2018-06-23T07:49:47.212Z,26.60
2018-06-23T07:52:18.916Z,27.00
2018-06-23T07:54:51.389Z,27.30
2018-06-23T07:57:22.558Z,26.80
2018-06-23T07:59:54.738Z,27.10
2018-06-23T08:02:26.927Z,27.40
2018-06-23T08:04:59.066Z,27.70
2018-06-23T08:07:30.324Z,27.60
2018-06-23T08:10:03.298Z,28.00
2018-06-23T08:12:35.376Z,28.40
2018-06-23T08:15:07.080Z,28.90
2018-06-23T08:17:39.015Z,28.70
2018-06-23T08:20:10.988Z,28.30
2018-06-23T08:22:42.487Z,28.30
2018-06-23T08:25:16.829Z,27.90
2018-06-23T08:27:48.574Z,28.70
2018-06-23T08:30:20.052Z,28.80
2018-06-23T08:32:52.223Z,28.90
2018-06-23T08:35:24.355Z,29.00
2018-06-23T08:37:55.912Z,29.40
2018-06-23T08:40:27.376Z,29.60
2018-06-23T08:42:59.297Z,30.00
2018-06-23T08:45:32.135Z,30.40
2018-06-23T08:48:04.522Z,30.30
2018-06-23T08:50:36.761Z,29.80
2018-06-23T08:53:08.580Z,30.00
2018-06-23T08:55:40.423Z,29.90
2018-06-23T09:00:42.467Z,29.30
2018-06-23T09:03:13.969Z,29.50
2018-06-23T09:05:45.274Z,30.10
2018-06-23T09:08:17.825Z,30.10
2018-06-23T09:10:49.478Z,29.60
2018-06-23T09:13:20.736Z,29.90
2018-06-23T09:15:52.945Z,29.80
2018-06-23T09:18:24.005Z,29.30
2018-06-23T09:20:57.113Z,29.40
2018-06-23T09:23:30.563Z,30.10
2018-06-23T09:26:03.291Z,30.80
2018-06-23T09:28:35.046Z,31.60
2018-06-23T09:31:07.521Z,31.30
2018-06-23T09:33:39.981Z,30.90
2018-06-23T09:36:11.287Z,30.40
2018-06-23T09:38:43.501Z,30.10
2018-06-23T09:41:15.879Z,29.50
2018-06-23T09:43:47.587Z,30.20
2018-06-23T09:46:18.713Z,30.40
2018-06-23T09:48:51.788Z,30.40
2018-06-23T09:51:23.779Z,30.60
2018-06-23T09:53:56.877Z,30.70
2018-06-23T09:56:29.275Z,31.30
2018-06-23T09:59:02.092Z,31.00
2018-06-23T10:01:34.791Z,31.30
2018-06-23T10:04:06.853Z,31.70
2018-06-23T10:06:38.201Z,31.00
2018-06-23T10:09:11.780Z,30.30
2018-06-23T10:11:43.940Z,30.40
2018-06-23T10:14:17.810Z,30.20
2018-06-23T10:16:50.041Z,30.10
2018-06-23T10:19:21.618Z,30.00
2018-06-23T10:24:24.711Z,30.60
2018-06-23T10:26:57.428Z,30.90
2018-06-23T10:29:28.567Z,31.50
2018-06-23T10:31:59.930Z,31.70
2018-06-23T10:34:32.225Z,30.90
2018-06-23T10:37:03.486Z,30.70
2018-06-23T10:39:34.641Z,31.30
2018-06-23T10:42:06.787Z,31.20
2018-06-23T10:44:38.717Z,30.70
2018-06-23T10:47:10.932Z,30.60
2018-06-23T10:49:42.656Z,31.00
2018-06-23T10:52:13.977Z,31.10
2018-06-23T10:54:46.110Z,30.90
2018-06-23T10:57:20.604Z,31.00
2018-06-23T10:59:52.204Z,31.30
2018-06-23T11:04:55.354Z,31.40
2018-06-23T11:07:27.525Z,31.80
2018-06-23T11:09:59.240Z,31.70
2018-06-23T11:12:34.193Z,32.10
2018-06-23T11:15:07.632Z,32.30
2018-06-23T11:17:39.485Z,32.20
2018-06-23T11:20:10.873Z,31.60
2018-06-23T11:22:42.837Z,31.70
2018-06-23T11:25:14.431Z,31.40
2018-06-23T11:27:46.642Z,32.00
2018-06-23T11:30:18.514Z,32.40
2018-06-23T11:32:49.890Z,32.50
2018-06-23T11:35:21.592Z,32.20
2018-06-23T11:37:55.298Z,32.40
2018-06-23T11:40:27.645Z,32.50
2018-06-23T11:42:59.254Z,32.80
2018-06-23T11:45:31.929Z,32.40
2018-06-23T11:48:03.630Z,32.90
2018-06-23T11:53:08.636Z,32.70
2018-06-23T11:55:41.230Z,33.20
2018-06-23T11:58:13.564Z,32.60
2018-06-23T12:00:45.278Z,32.20
2018-06-23T12:03:16.567Z,32.30
2018-06-23T12:05:47.639Z,32.10
2018-06-23T12:08:18.824Z,31.40
2018-06-23T12:10:50.112Z,31.40
2018-06-23T12:13:22.692Z,31.80
2018-06-23T12:15:54.165Z,31.70
2018-06-23T12:18:25.477Z,31.60
2018-06-23T12:20:56.806Z,31.50
2018-06-23T12:23:28.460Z,31.50
2018-06-23T12:26:08.156Z,31.80
2018-06-23T12:28:46.479Z,32.10
2018-06-23T12:31:24.478Z,32.10
2018-06-23T12:34:00.393Z,32.30
2018-06-23T12:36:42.702Z,32.30
2018-06-23T12:39:14.632Z,32.00
2018-06-23T12:41:49.926Z,31.60
2018-06-23T12:44:22.348Z,31.40
2018-06-23T12:46:53.869Z,31.70
2018-06-23T12:49:27.192Z,31.80
2018-06-23T12:51:59.649Z,31.80
2018-06-23T12:54:30.891Z,31.70
2018-06-23T12:57:02.247Z,31.40
2018-06-23T12:59:33.471Z,31.10
2018-06-23T13:02:04.609Z,30.90
2018-06-23T13:04:35.859Z,31.50
2018-06-23T13:07:09.640Z,31.70
2018-06-23T13:09:42.082Z,31.20
2018-06-23T13:12:14.173Z,31.00
2018-06-23T13:14:45.757Z,30.60
2018-06-23T13:17:18.503Z,30.50
2018-06-23T13:19:51.543Z,30.50
2018-06-23T13:22:24.601Z,30.40
2018-06-23T13:24:56.221Z,30.40
2018-06-23T13:27:27.760Z,30.00
2018-06-23T13:29:59.465Z,30.40
2018-06-23T13:32:34.133Z,31.10
2018-06-23T13:35:10.164Z,30.80
2018-06-23T13:37:43.176Z,30.70
2018-06-23T13:40:16.444Z,30.60
2018-06-23T13:42:50.993Z,30.80
2018-06-23T13:45:25.997Z,31.10
2018-06-23T13:47:57.471Z,30.80
2018-06-23T13:50:30.494Z,30.00
2018-06-23T13:53:01.997Z,30.00
2018-06-23T13:55:33.899Z,29.90
2018-06-23T13:58:05.392Z,29.90
2018-06-23T14:03:10.569Z,30.60
2018-06-23T14:05:42.136Z,30.40
2018-06-23T14:08:14.262Z,30.20
2018-06-23T14:10:47.021Z,30.00
2018-06-23T14:13:20.121Z,30.50
2018-06-23T14:15:53.709Z,30.90
2018-06-23T14:18:26.088Z,31.10
2018-06-23T14:20:58.008Z,31.10
2018-06-23T14:23:34.836Z,30.90
2018-06-23T14:26:06.430Z,30.90
2018-06-23T14:28:37.732Z,30.80
2018-06-23T14:31:09.659Z,30.90
2018-06-23T14:33:41.963Z,30.80
2018-06-23T14:36:13.707Z,30.70
2018-06-23T14:41:16.906Z,30.50
2018-06-23T14:43:48.017Z,30.70
2018-06-23T14:46:20.674Z,30.80
2018-06-23T14:48:53.557Z,30.90
2018-06-23T14:51:25.923Z,30.70
2018-06-23T14:53:57.308Z,30.80
2018-06-23T14:56:29.308Z,30.40
2018-06-23T14:59:00.736Z,30.40
2018-06-23T15:01:31.948Z,30.40
2018-06-23T15:04:03.911Z,30.00
2018-06-23T15:06:35.907Z,29.90
2018-06-23T15:09:23.452Z,29.90
2018-06-23T15:12:10.809Z,29.80
2018-06-23T15:14:42.213Z,29.90
2018-06-23T15:17:14.739Z,29.70
2018-06-23T15:19:46.120Z,29.70
2018-06-23T15:22:18.026Z,29.70
2018-06-23T15:24:50.064Z,29.80
2018-06-23T15:27:22.729Z,29.80
2018-06-23T15:29:55.084Z,29.60
2018-06-23T15:32:26.717Z,29.60
2018-06-23T15:34:57.924Z,29.60
2018-06-23T15:37:30.172Z,29.50
2018-06-23T15:40:01.424Z,29.50
2018-06-23T15:42:32.665Z,29.40
2018-06-23T15:45:05.177Z,29.30
2018-06-23T15:47:36.541Z,29.20
2018-06-23T15:50:07.796Z,29.10
2018-06-23T15:52:39.086Z,28.80
2018-06-23T15:55:11.284Z,28.70
2018-06-23T15:57:43.452Z,28.50
2018-06-23T16:00:15.620Z,28.50
2018-06-23T16:02:48.086Z,28.60
2018-06-23T16:05:19.769Z,28.50
2018-06-23T16:07:51.117Z,28.30
2018-06-23T16:10:25.161Z,28.40
2018-06-23T16:12:56.719Z,28.20
2018-06-23T16:15:28.056Z,28.10
2018-06-23T16:23:00.056Z,27.90
2018-06-23T16:25:32.092Z,27.90
2018-06-23T16:30:34.959Z,28.00
2018-06-23T16:33:06.178Z,27.80
2018-06-23T16:47:28.480Z,27.50
2018-06-23T16:49:59.670Z,27.00
2018-06-23T16:52:31.008Z,27.10
2018-06-23T16:55:03.490Z,27.20
2018-06-23T16:57:39.101Z,27.20
2018-06-23T17:00:10.547Z,27.20
2018-06-23T17:02:43.106Z,27.10
2018-06-23T17:05:14.528Z,27.00
2018-06-23T17:10:18.370Z,26.70
2018-06-23T17:12:49.413Z,26.60
2018-06-23T17:15:20.684Z,26.50
2018-06-23T17:17:52.833Z,26.30
2018-06-23T17:20:24.193Z,26.30
2018-06-23T17:22:55.432Z,26.40
2018-06-23T17:25:27.696Z,26.50
2018-06-23T17:28:00.635Z,26.40
2018-06-23T17:30:34.873Z,26.10
2018-06-23T17:33:06.746Z,25.90
2018-06-23T17:35:40.740Z,25.90
2018-06-23T17:38:12.247Z,25.90
2018-06-23T17:40:44.206Z,25.80
2018-06-23T17:43:17.880Z,25.70
2018-06-23T17:45:54.253Z,25.60
2018-06-23T17:48:27.257Z,25.60
2018-06-23T17:50:59.048Z,25.50
2018-06-23T17:53:31.001Z,25.30
2018-06-23T17:56:03.255Z,25.40
2018-06-23T18:01:06.310Z,25.20
2018-06-23T18:03:39.357Z,25.10
2018-06-23T18:06:10.882Z,25.10
2018-06-23T18:08:43.208Z,25.00
2018-06-23T18:11:15.827Z,24.80
2018-06-23T18:13:47.223Z,24.70
2018-06-23T18:16:19.008Z,24.60
2018-06-23T18:18:50.816Z,24.50
2018-06-23T18:21:21.910Z,24.40
2018-06-23T18:23:53.230Z,24.20
2018-06-23T18:26:24.781Z,24.10
2018-06-23T18:28:55.903Z,24.10
2018-06-23T18:31:27.073Z,24.00
2018-06-23T18:33:58.352Z,23.90
2018-06-23T18:36:29.466Z,23.80
2018-06-23T18:39:00.549Z,23.70
2018-06-23T18:41:31.650Z,23.50
2018-06-23T18:44:03.209Z,23.40
2018-06-23T18:46:34.426Z,23.30
2018-06-23T18:49:05.533Z,23.10
2018-06-23T18:51:36.866Z,23.00
2018-06-23T18:54:08.221Z,23.00
2018-06-23T18:56:39.712Z,22.90
2018-06-23T18:59:11.188Z,22.90
2018-06-23T19:01:47.406Z,22.80
2018-06-23T19:06:52.608Z,22.60
2018-06-23T19:09:25.462Z,22.60
2018-06-23T19:11:58.501Z,22.50
2018-06-23T19:14:30.945Z,22.40
2018-06-23T19:17:03.970Z,22.30
2018-06-23T19:19:36.554Z,22.20
2018-06-23T19:22:09.578Z,22.00
2018-06-23T19:24:43.359Z,21.90
2018-06-23T19:27:15.576Z,21.90
2018-06-23T19:29:49.818Z,21.70
2018-06-23T19:32:22.698Z,21.50
2018-06-23T19:34:57.091Z,21.40
2018-06-23T19:37:29.913Z,21.20
2018-06-23T19:40:06.015Z,21.20
2018-06-23T19:42:37.301Z,21.10
2018-06-23T19:45:08.557Z,21.00
2018-06-23T19:47:41.833Z,21.00
2018-06-23T19:55:18.252Z,20.80
2018-06-23T19:57:50.055Z,20.70
2018-06-23T20:00:22.060Z,20.70
2018-06-23T20:02:54.149Z,20.60
2018-06-23T20:05:27.786Z,20.60
2018-06-23T20:10:30.548Z,20.30
2018-06-23T20:13:02.590Z,20.20
2018-06-23T20:15:35.103Z,20.20
2018-06-23T20:18:06.920Z,20.00
2018-06-23T20:20:41.111Z,19.90
2018-06-23T20:23:14.638Z,19.70
2018-06-23T20:25:46.469Z,19.60
2018-06-23T20:28:20.548Z,19.50
2018-06-23T20:30:53.046Z,19.40
2018-06-23T20:33:25.577Z,19.30
2018-06-23T20:35:58.480Z,19.30
2018-06-23T20:38:32.144Z,19.30
2018-06-23T20:41:05.578Z,19.30
2018-06-23T20:43:39.876Z,19.30
2018-06-23T20:46:13.293Z,19.30
2018-06-23T21:37:14.777Z,18.20
2018-06-23T21:39:49.945Z,18.20
2018-06-23T21:42:23.070Z,18.10
2018-06-23T21:44:55.900Z,18.10
2018-06-23T21:49:59.178Z,18.10
2018-06-23T21:52:33.191Z,18.00
2018-06-23T21:55:05.220Z,17.90
2018-06-23T21:57:40.105Z,17.80
2018-06-23T22:00:25.054Z,17.80
2018-06-23T22:02:56.656Z,17.80
2018-06-23T22:05:28.152Z,17.30
2018-06-23T22:07:59.864Z,17.20
2018-06-23T22:10:31.506Z,17.20
2018-06-23T22:13:02.883Z,17.30
2018-06-23T22:15:35.152Z,17.30
2018-06-23T22:18:06.958Z,17.30
2018-06-23T22:20:38.721Z,17.30
2018-06-23T22:23:10.210Z,17.30
2018-06-23T22:25:42.548Z,17.30
2018-06-23T22:28:14.409Z,17.30
2018-06-23T22:30:46.152Z,17.20
2018-06-23T22:33:17.416Z,17.10
2018-06-23T22:35:48.974Z,17.00
2018-06-23T22:38:21.422Z,16.90
2018-06-23T22:40:52.613Z,16.80
2018-06-23T22:45:55.141Z,16.80
2018-06-23T22:48:26.267Z,16.70
2018-06-23T22:50:58.574Z,16.70
2018-06-23T22:53:29.851Z,16.60
2018-06-23T22:56:01.154Z,16.60
2018-06-23T22:58:32.494Z,16.40
2018-06-23T23:01:03.836Z,16.30
2018-06-23T23:03:35.635Z,16.00
2018-06-23T23:06:06.844Z,15.80
2018-06-23T23:08:38.052Z,15.80
2018-06-23T23:11:09.376Z,15.70
2018-06-23T23:13:41.769Z,15.70
2018-06-23T23:16:13.456Z,15.70
2018-06-23T23:18:45.087Z,15.70
2018-06-23T23:21:16.618Z,15.70
2018-06-23T23:23:47.678Z,15.60
2018-06-23T23:26:19.416Z,15.60
2018-06-23T23:28:50.456Z,15.60
2018-06-23T23:31:21.614Z,15.50
2018-06-23T23:36:24.977Z,15.40
2018-06-23T23:38:56.242Z,15.40
2018-06-23T23:41:27.437Z,15.30
2018-06-23T23:43:58.741Z,15.20
2018-06-23T23:46:30.709Z,15.00
2018-06-23T23:49:01.647Z,14.90
2018-06-23T23:51:32.784Z,14.90
2018-06-23T23:54:04.011Z,14.90
2018-06-23T23:59:06.392Z,14.60
